sensor_id;sensor_type;location;lat;lon;timestamp;P1;durP1;ratioP1;P2;durP2;ratioP2
842;SDS011;407;48.884;9.126;2022-08-19T00:00:15;23.23;;;13.00;;
842;SDS011;407;48.884;9.126;2022-08-19T00:02:41;19.83;;;12.32;;
842;SDS011;407;48.884;9.126;2022-08-19T00:05:08;21.73;;;11.82;;
842;SDS011;407;48.884;9.126;2022-08-19T00:07:34;20.75;;;12.30;;
842;SDS011;407;48.884;9.126;2022-08-19T00:10:00;22.13;;;12.23;;
842;SDS011;407;48.884;9.126;2022-08-19T00:12:26;18.23;;;11.35;;
842;SDS011;407;48.884;9.126;2022-08-19T00:14:52;20.92;;;11.25;;
842;SDS011;407;48.884;9.126;2022-08-19T00:17:19;20.10;;;11.43;;
842;SDS011;407;48.884;9.126;2022-08-19T00:19:45;25.47;;;12.37;;
842;SDS011;407;48.884;9.126;2022-08-19T00:22:11;20.23;;;11.32;;
842;SDS011;407;48.884;9.126;2022-08-19T00:24:37;18.15;;;10.88;;
842;SDS011;407;48.884;9.126;2022-08-19T00:27:04;22.50;;;11.60;;
842;SDS011;407;48.884;9.126;2022-08-19T00:29:30;22.10;;;11.65;;
842;SDS011;407;48.884;9.126;2022-08-19T00:31:56;21.85;;;11.60;;
842;SDS011;407;48.884;9.126;2022-08-19T00:34:24;20.35;;;11.18;;
842;SDS011;407;48.884;9.126;2022-08-19T00:36:54;25.52;;;12.60;;
842;SDS011;407;48.884;9.126;2022-08-19T00:39:20;19.40;;;11.43;;
842;SDS011;407;48.884;9.126;2022-08-19T00:41:47;19.70;;;11.50;;
842;SDS011;407;48.884;9.126;2022-08-19T00:46:41;19.87;;;11.70;;
842;SDS011;407;48.884;9.126;2022-08-19T00:49:15;21.80;;;11.63;;
842;SDS011;407;48.884;9.126;2022-08-19T00:51:42;19.90;;;11.50;;
842;SDS011;407;48.884;9.126;2022-08-19T00:54:10;19.42;;;11.20;;
842;SDS011;407;48.884;9.126;2022-08-19T00:56:36;21.15;;;12.10;;
842;SDS011;407;48.884;9.126;2022-08-19T00:59:02;19.97;;;11.57;;
842;SDS011;407;48.884;9.126;2022-08-19T01:01:33;21.77;;;11.57;;
842;SDS011;407;48.884;9.126;2022-08-19T01:03:59;22.95;;;11.60;;
842;SDS011;407;48.884;9.126;2022-08-19T01:06:26;22.48;;;11.50;;
842;SDS011;407;48.884;9.126;2022-08-19T01:08:53;20.98;;;11.70;;
842;SDS011;407;48.884;9.126;2022-08-19T01:11:19;20.17;;;11.80;;
842;SDS011;407;48.884;9.126;2022-08-19T01:13:45;19.77;;;11.57;;
842;SDS011;407;48.884;9.126;2022-08-19T01:16:12;21.95;;;12.98;;
842;SDS011;407;48.884;9.126;2022-08-19T01:18:39;22.70;;;11.88;;
842;SDS011;407;48.884;9.126;2022-08-19T01:21:08;19.20;;;11.87;;
842;SDS011;407;48.884;9.126;2022-08-19T01:23:35;23.27;;;12.48;;
842;SDS011;407;48.884;9.126;2022-08-19T01:26:11;21.30;;;11.40;;
842;SDS011;407;48.884;9.126;2022-08-19T01:28:38;23.27;;;11.82;;
842;SDS011;407;48.884;9.126;2022-08-19T01:31:05;20.63;;;12.00;;
842;SDS011;407;48.884;9.126;2022-08-19T01:33:31;21.67;;;12.83;;
842;SDS011;407;48.884;9.126;2022-08-19T01:36:07;22.73;;;12.17;;
842;SDS011;407;48.884;9.126;2022-08-19T01:38:35;22.17;;;12.30;;
842;SDS011;407;48.884;9.126;2022-08-19T01:41:01;30.00;;;12.77;;
842;SDS011;407;48.884;9.126;2022-08-19T01:43:27;24.45;;;13.88;;
842;SDS011;407;48.884;9.126;2022-08-19T01:45:54;22.33;;;13.50;;
842;SDS011;407;48.884;9.126;2022-08-19T01:48:20;25.55;;;13.32;;
842;SDS011;407;48.884;9.126;2022-08-19T01:50:46;23.50;;;13.30;;
842;SDS011;407;48.884;9.126;2022-08-19T01:53:12;23.77;;;12.95;;
842;SDS011;407;48.884;9.126;2022-08-19T01:55:39;24.13;;;12.70;;
842;SDS011;407;48.884;9.126;2022-08-19T01:58:06;23.75;;;13.65;;
842;SDS011;407;48.884;9.126;2022-08-19T02:00:33;26.15;;;13.60;;
842;SDS011;407;48.884;9.126;2022-08-19T02:02:59;23.55;;;13.23;;
842;SDS011;407;48.884;9.126;2022-08-19T02:05:26;26.60;;;13.85;;
842;SDS011;407;48.884;9.126;2022-08-19T02:07:54;25.60;;;14.20;;
842;SDS011;407;48.884;9.126;2022-08-19T02:10:21;25.77;;;13.60;;
842;SDS011;407;48.884;9.126;2022-08-19T02:12:47;24.63;;;13.33;;
842;SDS011;407;48.884;9.126;2022-08-19T02:15:14;24.98;;;14.38;;
842;SDS011;407;48.884;9.126;2022-08-19T02:17:41;26.17;;;14.50;;
842;SDS011;407;48.884;9.126;2022-08-19T02:20:08;24.88;;;13.60;;
842;SDS011;407;48.884;9.126;2022-08-19T02:22:34;24.47;;;14.03;;
842;SDS011;407;48.884;9.126;2022-08-19T02:25:00;24.55;;;14.45;;
842;SDS011;407;48.884;9.126;2022-08-19T02:27:26;25.27;;;14.18;;
842;SDS011;407;48.884;9.126;2022-08-19T02:29:53;27.20;;;14.73;;
842;SDS011;407;48.884;9.126;2022-08-19T02:32:19;26.43;;;14.23;;
842;SDS011;407;48.884;9.126;2022-08-19T02:34:45;28.77;;;15.00;;
842;SDS011;407;48.884;9.126;2022-08-19T02:37:11;26.58;;;15.05;;
842;SDS011;407;48.884;9.126;2022-08-19T02:39:56;27.48;;;15.68;;
842;SDS011;407;48.884;9.126;2022-08-19T02:42:22;26.95;;;14.73;;
842;SDS011;407;48.884;9.126;2022-08-19T02:44:48;28.38;;;15.65;;
842;SDS011;407;48.884;9.126;2022-08-19T02:47:14;26.75;;;15.40;;
842;SDS011;407;48.884;9.126;2022-08-19T02:49:41;26.10;;;16.00;;
842;SDS011;407;48.884;9.126;2022-08-19T02:52:07;29.83;;;16.55;;
842;SDS011;407;48.884;9.126;2022-08-19T02:54:33;26.90;;;15.52;;
842;SDS011;407;48.884;9.126;2022-08-19T02:56:59;26.52;;;15.73;;
842;SDS011;407;48.884;9.126;2022-08-19T02:59:25;26.60;;;15.95;;
842;SDS011;407;48.884;9.126;2022-08-19T03:01:55;30.83;;;16.20;;
842;SDS011;407;48.884;9.126;2022-08-19T03:04:21;30.23;;;16.35;;
842;SDS011;407;48.884;9.126;2022-08-19T03:06:48;26.13;;;15.23;;
842;SDS011;407;48.884;9.126;2022-08-19T03:09:14;26.30;;;16.23;;
842;SDS011;407;48.884;9.126;2022-08-19T03:11:40;28.65;;;16.25;;
842;SDS011;407;48.884;9.126;2022-08-19T03:14:07;32.13;;;17.08;;
842;SDS011;407;48.884;9.126;2022-08-19T03:16:35;28.88;;;16.90;;
842;SDS011;407;48.884;9.126;2022-08-19T03:19:05;26.10;;;16.30;;
842;SDS011;407;48.884;9.126;2022-08-19T03:21:32;30.77;;;17.35;;
842;SDS011;407;48.884;9.126;2022-08-19T03:23:59;29.93;;;16.13;;
842;SDS011;407;48.884;9.126;2022-08-19T03:26:26;27.98;;;16.92;;
842;SDS011;407;48.884;9.126;2022-08-19T03:28:52;30.70;;;17.20;;
842;SDS011;407;48.884;9.126;2022-08-19T03:31:19;29.75;;;16.75;;
842;SDS011;407;48.884;9.126;2022-08-19T03:33:47;28.33;;;16.83;;
842;SDS011;407;48.884;9.126;2022-08-19T03:36:19;29.63;;;17.38;;
842;SDS011;407;48.884;9.126;2022-08-19T03:38:49;29.50;;;17.03;;
842;SDS011;407;48.884;9.126;2022-08-19T03:41:17;26.73;;;16.50;;
842;SDS011;407;48.884;9.126;2022-08-19T03:43:44;29.33;;;17.80;;
842;SDS011;407;48.884;9.126;2022-08-19T03:46:12;29.55;;;17.10;;
842;SDS011;407;48.884;9.126;2022-08-19T03:48:39;26.50;;;16.63;;
842;SDS011;407;48.884;9.126;2022-08-19T03:51:06;31.50;;;17.88;;
842;SDS011;407;48.884;9.126;2022-08-19T03:53:33;30.98;;;17.63;;
842;SDS011;407;48.884;9.126;2022-08-19T03:55:59;30.00;;;17.60;;
842;SDS011;407;48.884;9.126;2022-08-19T03:58:26;27.92;;;16.45;;
842;SDS011;407;48.884;9.126;2022-08-19T04:00:53;30.17;;;17.73;;
842;SDS011;407;48.884;9.126;2022-08-19T04:03:20;29.23;;;17.52;;
842;SDS011;407;48.884;9.126;2022-08-19T04:05:46;32.53;;;18.87;;
842;SDS011;407;48.884;9.126;2022-08-19T04:08:13;31.80;;;19.30;;
842;SDS011;407;48.884;9.126;2022-08-19T04:10:43;30.52;;;17.65;;
842;SDS011;407;48.884;9.126;2022-08-19T04:13:09;34.65;;;19.23;;
842;SDS011;407;48.884;9.126;2022-08-19T04:15:39;28.35;;;17.17;;
842;SDS011;407;48.884;9.126;2022-08-19T04:18:06;28.92;;;18.05;;
842;SDS011;407;48.884;9.126;2022-08-19T04:20:33;31.60;;;19.52;;
842;SDS011;407;48.884;9.126;2022-08-19T04:22:59;28.08;;;17.77;;
842;SDS011;407;48.884;9.126;2022-08-19T04:25:25;30.45;;;17.75;;
842;SDS011;407;48.884;9.126;2022-08-19T04:27:51;31.48;;;18.42;;
842;SDS011;407;48.884;9.126;2022-08-19T04:30:17;33.15;;;18.85;;
842;SDS011;407;48.884;9.126;2022-08-19T04:32:44;30.05;;;17.73;;
842;SDS011;407;48.884;9.126;2022-08-19T04:35:10;30.80;;;18.70;;
842;SDS011;407;48.884;9.126;2022-08-19T04:37:36;32.08;;;18.40;;
842;SDS011;407;48.884;9.126;2022-08-19T04:40:03;32.08;;;18.80;;
842;SDS011;407;48.884;9.126;2022-08-19T04:42:48;33.08;;;18.20;;
842;SDS011;407;48.884;9.126;2022-08-19T04:45:14;31.42;;;18.30;;
842;SDS011;407;48.884;9.126;2022-08-19T04:47:40;30.70;;;17.73;;
842;SDS011;407;48.884;9.126;2022-08-19T04:50:07;31.83;;;18.67;;
842;SDS011;407;48.884;9.126;2022-08-19T04:52:34;32.10;;;18.40;;
842;SDS011;407;48.884;9.126;2022-08-19T04:55:00;31.93;;;18.83;;
842;SDS011;407;48.884;9.126;2022-08-19T04:57:26;30.52;;;18.15;;
842;SDS011;407;48.884;9.126;2022-08-19T04:59:56;31.00;;;18.50;;
842;SDS011;407;48.884;9.126;2022-08-19T05:02:22;32.28;;;18.70;;
842;SDS011;407;48.884;9.126;2022-08-19T05:04:49;32.05;;;18.88;;
842;SDS011;407;48.884;9.126;2022-08-19T05:07:15;36.88;;;20.15;;
842;SDS011;407;48.884;9.126;2022-08-19T05:09:41;31.57;;;19.03;;
842;SDS011;407;48.884;9.126;2022-08-19T05:12:07;31.35;;;19.27;;
842;SDS011;407;48.884;9.126;2022-08-19T05:14:34;30.70;;;18.83;;
842;SDS011;407;48.884;9.126;2022-08-19T05:17:01;31.88;;;18.10;;
842;SDS011;407;48.884;9.126;2022-08-19T05:19:27;34.33;;;18.77;;
842;SDS011;407;48.884;9.126;2022-08-19T05:22:12;32.85;;;18.98;;
842;SDS011;407;48.884;9.126;2022-08-19T05:24:57;29.23;;;18.50;;
842;SDS011;407;48.884;9.126;2022-08-19T05:27:23;31.42;;;18.50;;
842;SDS011;407;48.884;9.126;2022-08-19T05:29:49;30.70;;;18.60;;
842;SDS011;407;48.884;9.126;2022-08-19T05:32:15;32.13;;;19.30;;
842;SDS011;407;48.884;9.126;2022-08-19T05:34:41;29.25;;;18.45;;
842;SDS011;407;48.884;9.126;2022-08-19T05:37:07;30.70;;;18.60;;
842;SDS011;407;48.884;9.126;2022-08-19T05:39:34;32.37;;;18.53;;
842;SDS011;407;48.884;9.126;2022-08-19T05:42:04;31.20;;;18.30;;
842;SDS011;407;48.884;9.126;2022-08-19T05:44:36;30.33;;;18.50;;
842;SDS011;407;48.884;9.126;2022-08-19T05:47:03;34.42;;;19.92;;
842;SDS011;407;48.884;9.126;2022-08-19T05:49:30;33.50;;;19.55;;
842;SDS011;407;48.884;9.126;2022-08-19T05:51:56;30.13;;;18.17;;
842;SDS011;407;48.884;9.126;2022-08-19T05:54:24;34.30;;;18.90;;
842;SDS011;407;48.884;9.126;2022-08-19T05:56:51;37.38;;;19.25;;
842;SDS011;407;48.884;9.126;2022-08-19T05:59:18;35.90;;;18.27;;
842;SDS011;407;48.884;9.126;2022-08-19T06:01:46;27.08;;;16.73;;
842;SDS011;407;48.884;9.126;2022-08-19T06:04:15;31.03;;;18.50;;
842;SDS011;407;48.884;9.126;2022-08-19T06:06:43;31.83;;;18.90;;
842;SDS011;407;48.884;9.126;2022-08-19T06:09:09;32.95;;;18.70;;
842;SDS011;407;48.884;9.126;2022-08-19T06:11:42;32.53;;;18.48;;
842;SDS011;407;48.884;9.126;2022-08-19T06:14:10;36.07;;;18.70;;
842;SDS011;407;48.884;9.126;2022-08-19T06:16:37;31.85;;;17.98;;
842;SDS011;407;48.884;9.126;2022-08-19T06:19:04;31.13;;;18.70;;
842;SDS011;407;48.884;9.126;2022-08-19T06:21:31;34.07;;;18.70;;
842;SDS011;407;48.884;9.126;2022-08-19T06:23:58;28.17;;;17.65;;
842;SDS011;407;48.884;9.126;2022-08-19T06:26:24;31.42;;;17.80;;
842;SDS011;407;48.884;9.126;2022-08-19T06:28:51;34.10;;;18.30;;
842;SDS011;407;48.884;9.126;2022-08-19T06:31:22;32.60;;;18.20;;
842;SDS011;407;48.884;9.126;2022-08-19T06:33:48;31.40;;;18.25;;
842;SDS011;407;48.884;9.126;2022-08-19T06:36:22;31.60;;;18.05;;
842;SDS011;407;48.884;9.126;2022-08-19T06:38:52;29.20;;;18.80;;
842;SDS011;407;48.884;9.126;2022-08-19T06:41:18;33.67;;;18.80;;
842;SDS011;407;48.884;9.126;2022-08-19T06:43:44;31.65;;;18.33;;
842;SDS011;407;48.884;9.126;2022-08-19T06:46:14;29.27;;;17.75;;
842;SDS011;407;48.884;9.126;2022-08-19T06:48:41;30.45;;;18.00;;
842;SDS011;407;48.884;9.126;2022-08-19T06:51:07;35.10;;;18.43;;
842;SDS011;407;48.884;9.126;2022-08-19T06:53:33;28.63;;;17.73;;
842;SDS011;407;48.884;9.126;2022-08-19T06:55:59;30.27;;;17.48;;
842;SDS011;407;48.884;9.126;2022-08-19T06:58:27;34.70;;;18.00;;
842;SDS011;407;48.884;9.126;2022-08-19T07:00:56;30.50;;;17.77;;
842;SDS011;407;48.884;9.126;2022-08-19T07:03:25;26.40;;;17.00;;
842;SDS011;407;48.884;9.126;2022-08-19T07:05:53;29.00;;;17.77;;
842;SDS011;407;48.884;9.126;2022-08-19T07:08:19;28.83;;;18.00;;
842;SDS011;407;48.884;9.126;2022-08-19T07:10:45;30.08;;;17.98;;
842;SDS011;407;48.884;9.126;2022-08-19T07:13:11;27.85;;;16.95;;
842;SDS011;407;48.884;9.126;2022-08-19T07:15:37;29.23;;;16.85;;
842;SDS011;407;48.884;9.126;2022-08-19T07:18:03;26.48;;;16.60;;
842;SDS011;407;48.884;9.126;2022-08-19T07:20:29;28.02;;;16.90;;
842;SDS011;407;48.884;9.126;2022-08-19T07:22:56;29.25;;;18.17;;
842;SDS011;407;48.884;9.126;2022-08-19T07:25:22;25.58;;;16.60;;
842;SDS011;407;48.884;9.126;2022-08-19T07:27:49;28.80;;;16.52;;
842;SDS011;407;48.884;9.126;2022-08-19T07:30:15;27.57;;;16.83;;
842;SDS011;407;48.884;9.126;2022-08-19T07:32:41;26.38;;;16.33;;
842;SDS011;407;48.884;9.126;2022-08-19T07:35:08;25.17;;;15.27;;
842;SDS011;407;48.884;9.126;2022-08-19T07:37:34;26.75;;;17.02;;
842;SDS011;407;48.884;9.126;2022-08-19T07:40:03;26.20;;;16.02;;
842;SDS011;407;48.884;9.126;2022-08-19T07:42:29;26.48;;;15.85;;
842;SDS011;407;48.884;9.126;2022-08-19T07:44:55;26.00;;;15.88;;
842;SDS011;407;48.884;9.126;2022-08-19T07:47:21;25.65;;;15.18;;
842;SDS011;407;48.884;9.126;2022-08-19T07:49:47;26.95;;;14.75;;
842;SDS011;407;48.884;9.126;2022-08-19T07:52:13;30.58;;;16.27;;
842;SDS011;407;48.884;9.126;2022-08-19T07:54:41;26.37;;;14.57;;
842;SDS011;407;48.884;9.126;2022-08-19T07:57:08;26.52;;;16.02;;
842;SDS011;407;48.884;9.126;2022-08-19T07:59:34;25.88;;;15.00;;
842;SDS011;407;48.884;9.126;2022-08-19T08:02:01;25.73;;;15.30;;
842;SDS011;407;48.884;9.126;2022-08-19T08:04:28;26.55;;;16.13;;
842;SDS011;407;48.884;9.126;2022-08-19T08:07:12;25.83;;;14.77;;
842;SDS011;407;48.884;9.126;2022-08-19T08:09:57;24.55;;;14.70;;
842;SDS011;407;48.884;9.126;2022-08-19T08:12:25;22.92;;;14.48;;
842;SDS011;407;48.884;9.126;2022-08-19T08:14:54;24.52;;;15.10;;
842;SDS011;407;48.884;9.126;2022-08-19T08:17:22;23.52;;;14.52;;
842;SDS011;407;48.884;9.126;2022-08-19T08:19:48;26.90;;;14.80;;
842;SDS011;407;48.884;9.126;2022-08-19T08:22:16;23.05;;;14.57;;
842;SDS011;407;48.884;9.126;2022-08-19T08:25:11;26.60;;;14.60;;
842;SDS011;407;48.884;9.126;2022-08-19T08:27:38;22.65;;;14.00;;
842;SDS011;407;48.884;9.126;2022-08-19T08:30:06;24.35;;;15.10;;
842;SDS011;407;48.884;9.126;2022-08-19T08:32:34;24.65;;;14.25;;
842;SDS011;407;48.884;9.126;2022-08-19T08:35:00;26.63;;;14.80;;
842;SDS011;407;48.884;9.126;2022-08-19T08:37:26;26.60;;;13.87;;
842;SDS011;407;48.884;9.126;2022-08-19T08:39:52;24.98;;;14.57;;
842;SDS011;407;48.884;9.126;2022-08-19T08:42:21;26.13;;;14.30;;
842;SDS011;407;48.884;9.126;2022-08-19T08:45:10;25.33;;;14.50;;
842;SDS011;407;48.884;9.126;2022-08-19T08:47:39;21.90;;;14.20;;
842;SDS011;407;48.884;9.126;2022-08-19T08:50:10;24.55;;;13.95;;
842;SDS011;407;48.884;9.126;2022-08-19T08:52:41;23.52;;;14.02;;
842;SDS011;407;48.884;9.126;2022-08-19T08:55:13;21.83;;;13.35;;
842;SDS011;407;48.884;9.126;2022-08-19T08:57:49;23.58;;;14.57;;
842;SDS011;407;48.884;9.126;2022-08-19T09:00:30;22.80;;;14.07;;
842;SDS011;407;48.884;9.126;2022-08-19T09:02:56;20.65;;;13.70;;
842;SDS011;407;48.884;9.126;2022-08-19T09:05:23;21.25;;;13.45;;
842;SDS011;407;48.884;9.126;2022-08-19T09:08:00;20.20;;;13.02;;
842;SDS011;407;48.884;9.126;2022-08-19T09:15:47;22.38;;;13.32;;
842;SDS011;407;48.884;9.126;2022-08-19T09:18:11;20.25;;;12.80;;
842;SDS011;407;48.884;9.126;2022-08-19T09:20:37;22.40;;;13.40;;
842;SDS011;407;48.884;9.126;2022-08-19T09:23:03;22.20;;;13.00;;
842;SDS011;407;48.884;9.126;2022-08-19T09:25:29;20.80;;;12.25;;
842;SDS011;407;48.884;9.126;2022-08-19T09:27:56;22.33;;;12.57;;
842;SDS011;407;48.884;9.126;2022-08-19T09:30:24;22.00;;;12.00;;
842;SDS011;407;48.884;9.126;2022-08-19T09:32:51;21.33;;;11.80;;
842;SDS011;407;48.884;9.126;2022-08-19T09:35:18;21.20;;;11.73;;
842;SDS011;407;48.884;9.126;2022-08-19T09:37:46;19.00;;;12.27;;
842;SDS011;407;48.884;9.126;2022-08-19T09:40:13;18.92;;;11.43;;
842;SDS011;407;48.884;9.126;2022-08-19T09:42:40;20.35;;;12.32;;
842;SDS011;407;48.884;9.126;2022-08-19T09:45:08;20.80;;;12.70;;
842;SDS011;407;48.884;9.126;2022-08-19T09:47:34;19.27;;;11.90;;
842;SDS011;407;48.884;9.126;2022-08-19T09:50:06;18.80;;;11.60;;
842;SDS011;407;48.884;9.126;2022-08-19T09:52:33;18.25;;;11.23;;
842;SDS011;407;48.884;9.126;2022-08-19T09:55:02;18.70;;;11.70;;
842;SDS011;407;48.884;9.126;2022-08-19T09:57:28;21.42;;;12.00;;
842;SDS011;407;48.884;9.126;2022-08-19T09:59:54;19.92;;;11.48;;
842;SDS011;407;48.884;9.126;2022-08-19T10:02:20;19.58;;;11.75;;
842;SDS011;407;48.884;9.126;2022-08-19T10:04:46;18.60;;;11.53;;
842;SDS011;407;48.884;9.126;2022-08-19T10:07:31;20.65;;;12.60;;
842;SDS011;407;48.884;9.126;2022-08-19T10:09:57;17.83;;;11.32;;
842;SDS011;407;48.884;9.126;2022-08-19T10:12:23;26.88;;;12.48;;
842;SDS011;407;48.884;9.126;2022-08-19T10:14:49;19.13;;;11.90;;
842;SDS011;407;48.884;9.126;2022-08-19T10:17:16;20.95;;;11.50;;
842;SDS011;407;48.884;9.126;2022-08-19T10:19:42;18.20;;;11.30;;
842;SDS011;407;48.884;9.126;2022-08-19T10:22:08;19.27;;;10.70;;
842;SDS011;407;48.884;9.126;2022-08-19T10:24:38;19.65;;;10.93;;
842;SDS011;407;48.884;9.126;2022-08-19T10:27:04;18.20;;;10.90;;
842;SDS011;407;48.884;9.126;2022-08-19T10:29:31;19.15;;;10.85;;
842;SDS011;407;48.884;9.126;2022-08-19T10:31:59;26.00;;;11.23;;
842;SDS011;407;48.884;9.126;2022-08-19T10:34:26;18.63;;;10.70;;
842;SDS011;407;48.884;9.126;2022-08-19T10:36:52;20.33;;;10.35;;
842;SDS011;407;48.884;9.126;2022-08-19T10:39:18;16.35;;;9.90;;
842;SDS011;407;48.884;9.126;2022-08-19T10:41:44;14.73;;;8.73;;
842;SDS011;407;48.884;9.126;2022-08-19T10:44:11;17.65;;;8.85;;
842;SDS011;407;48.884;9.126;2022-08-19T10:46:41;19.23;;;9.20;;
842;SDS011;407;48.884;9.126;2022-08-19T10:49:10;14.73;;;8.80;;
842;SDS011;407;48.884;9.126;2022-08-19T10:51:37;14.25;;;8.15;;
842;SDS011;407;48.884;9.126;2022-08-19T10:54:22;15.95;;;9.48;;
842;SDS011;407;48.884;9.126;2022-08-19T10:56:48;16.20;;;9.60;;
842;SDS011;407;48.884;9.126;2022-08-19T10:59:26;15.40;;;9.00;;
842;SDS011;407;48.884;9.126;2022-08-19T11:01:53;14.48;;;8.05;;
842;SDS011;407;48.884;9.126;2022-08-19T11:04:20;13.80;;;8.33;;
842;SDS011;407;48.884;9.126;2022-08-19T11:06:47;15.85;;;8.98;;
842;SDS011;407;48.884;9.126;2022-08-19T11:09:14;13.73;;;8.52;;
842;SDS011;407;48.884;9.126;2022-08-19T11:11:41;14.67;;;8.00;;
842;SDS011;407;48.884;9.126;2022-08-19T11:14:11;15.60;;;8.13;;
842;SDS011;407;48.884;9.126;2022-08-19T11:16:41;15.18;;;8.55;;
842;SDS011;407;48.884;9.126;2022-08-19T11:19:07;16.00;;;8.32;;
842;SDS011;407;48.884;9.126;2022-08-19T11:21:35;14.50;;;8.68;;
842;SDS011;407;48.884;9.126;2022-08-19T11:24:06;13.13;;;8.30;;
842;SDS011;407;48.884;9.126;2022-08-19T11:26:33;15.45;;;9.02;;
842;SDS011;407;48.884;9.126;2022-08-19T11:29:00;15.65;;;8.40;;
842;SDS011;407;48.884;9.126;2022-08-19T11:31:27;15.35;;;9.10;;
842;SDS011;407;48.884;9.126;2022-08-19T11:33:55;17.40;;;8.68;;
842;SDS011;407;48.884;9.126;2022-08-19T11:36:21;15.20;;;9.30;;
842;SDS011;407;48.884;9.126;2022-08-19T11:38:48;15.68;;;9.30;;
842;SDS011;407;48.884;9.126;2022-08-19T11:41:15;15.73;;;8.98;;
842;SDS011;407;48.884;9.126;2022-08-19T11:43:42;18.00;;;9.07;;
842;SDS011;407;48.884;9.126;2022-08-19T11:46:08;14.25;;;8.20;;
842;SDS011;407;48.884;9.126;2022-08-19T11:48:35;19.20;;;9.63;;
842;SDS011;407;48.884;9.126;2022-08-19T11:51:06;16.23;;;9.40;;
842;SDS011;407;48.884;9.126;2022-08-19T11:53:33;15.17;;;8.70;;
842;SDS011;407;48.884;9.126;2022-08-19T11:55:59;14.32;;;9.02;;
842;SDS011;407;48.884;9.126;2022-08-19T11:58:25;16.37;;;9.13;;
842;SDS011;407;48.884;9.126;2022-08-19T12:00:51;15.18;;;8.65;;
842;SDS011;407;48.884;9.126;2022-08-19T12:03:17;14.65;;;9.00;;
842;SDS011;407;48.884;9.126;2022-08-19T12:05:44;16.38;;;9.43;;
842;SDS011;407;48.884;9.126;2022-08-19T12:08:10;13.90;;;8.43;;
842;SDS011;407;48.884;9.126;2022-08-19T12:10:38;15.60;;;9.50;;
842;SDS011;407;48.884;9.126;2022-08-19T12:13:04;14.55;;;9.10;;
842;SDS011;407;48.884;9.126;2022-08-19T12:15:34;14.63;;;8.68;;
842;SDS011;407;48.884;9.126;2022-08-19T12:18:01;15.15;;;8.93;;
842;SDS011;407;48.884;9.126;2022-08-19T12:20:27;14.15;;;8.25;;
842;SDS011;407;48.884;9.126;2022-08-19T12:22:52;13.13;;;7.97;;
842;SDS011;407;48.884;9.126;2022-08-19T12:25:19;13.73;;;8.07;;
842;SDS011;407;48.884;9.126;2022-08-19T12:27:45;13.00;;;7.80;;
842;SDS011;407;48.884;9.126;2022-08-19T12:30:12;13.10;;;8.10;;
842;SDS011;407;48.884;9.126;2022-08-19T12:32:38;14.35;;;8.35;;
842;SDS011;407;48.884;9.126;2022-08-19T12:35:06;12.23;;;7.68;;
842;SDS011;407;48.884;9.126;2022-08-19T12:37:33;13.25;;;7.50;;
842;SDS011;407;48.884;9.126;2022-08-19T12:39:59;13.20;;;7.05;;
842;SDS011;407;48.884;9.126;2022-08-19T12:42:25;13.17;;;7.50;;
842;SDS011;407;48.884;9.126;2022-08-19T12:44:51;12.27;;;7.18;;
842;SDS011;407;48.884;9.126;2022-08-19T12:47:17;12.18;;;7.70;;
842;SDS011;407;48.884;9.126;2022-08-19T12:49:43;12.80;;;7.20;;
842;SDS011;407;48.884;9.126;2022-08-19T12:52:11;11.90;;;7.20;;
842;SDS011;407;48.884;9.126;2022-08-19T12:54:40;11.43;;;6.70;;
842;SDS011;407;48.884;9.126;2022-08-19T12:57:08;11.98;;;6.70;;
842;SDS011;407;48.884;9.126;2022-08-19T12:59:35;12.18;;;7.00;;
842;SDS011;407;48.884;9.126;2022-08-19T13:02:02;14.32;;;7.22;;
842;SDS011;407;48.884;9.126;2022-08-19T13:04:29;13.27;;;8.23;;
842;SDS011;407;48.884;9.126;2022-08-19T13:06:55;13.57;;;7.95;;
842;SDS011;407;48.884;9.126;2022-08-19T13:09:21;14.80;;;7.60;;
842;SDS011;407;48.884;9.126;2022-08-19T13:11:47;12.00;;;6.50;;
842;SDS011;407;48.884;9.126;2022-08-19T13:14:13;12.25;;;6.60;;
842;SDS011;407;48.884;9.126;2022-08-19T13:16:39;12.90;;;6.90;;
842;SDS011;407;48.884;9.126;2022-08-19T13:19:06;11.88;;;6.97;;
842;SDS011;407;48.884;9.126;2022-08-19T13:21:32;12.95;;;6.70;;
842;SDS011;407;48.884;9.126;2022-08-19T13:23:58;10.88;;;6.70;;
842;SDS011;407;48.884;9.126;2022-08-19T13:26:24;11.07;;;6.40;;
842;SDS011;407;48.884;9.126;2022-08-19T13:28:52;11.00;;;6.43;;
842;SDS011;407;48.884;9.126;2022-08-19T13:31:39;10.90;;;6.32;;
842;SDS011;407;48.884;9.126;2022-08-19T13:34:31;13.15;;;6.20;;
842;SDS011;407;48.884;9.126;2022-08-19T13:36:59;13.83;;;6.77;;
842;SDS011;407;48.884;9.126;2022-08-19T13:39:27;11.55;;;6.80;;
842;SDS011;407;48.884;9.126;2022-08-19T13:41:53;10.80;;;6.68;;
842;SDS011;407;48.884;9.126;2022-08-19T13:44:19;12.27;;;6.53;;
842;SDS011;407;48.884;9.126;2022-08-19T13:46:49;12.98;;;6.80;;
842;SDS011;407;48.884;9.126;2022-08-19T13:49:17;12.98;;;6.80;;
842;SDS011;407;48.884;9.126;2022-08-19T13:51:43;12.77;;;7.15;;
842;SDS011;407;48.884;9.126;2022-08-19T13:54:10;11.88;;;7.07;;
842;SDS011;407;48.884;9.126;2022-08-19T13:56:43;16.00;;;7.70;;
842;SDS011;407;48.884;9.126;2022-08-19T13:59:10;14.77;;;7.32;;
842;SDS011;407;48.884;9.126;2022-08-19T14:01:36;19.27;;;10.88;;
842;SDS011;407;48.884;9.126;2022-08-19T14:04:02;22.65;;;14.15;;
842;SDS011;407;48.884;9.126;2022-08-19T14:06:29;22.60;;;13.60;;
842;SDS011;407;48.884;9.126;2022-08-19T14:08:55;22.02;;;14.30;;
842;SDS011;407;48.884;9.126;2022-08-19T14:11:21;24.90;;;14.90;;
842;SDS011;407;48.884;9.126;2022-08-19T14:13:48;27.92;;;15.90;;
842;SDS011;407;48.884;9.126;2022-08-19T14:16:14;26.15;;;16.23;;
842;SDS011;407;48.884;9.126;2022-08-19T14:18:40;26.90;;;16.02;;
842;SDS011;407;48.884;9.126;2022-08-19T14:21:07;29.38;;;16.35;;
842;SDS011;407;48.884;9.126;2022-08-19T14:23:33;27.25;;;15.93;;
842;SDS011;407;48.884;9.126;2022-08-19T14:26:08;27.20;;;16.50;;
842;SDS011;407;48.884;9.126;2022-08-19T14:28:34;28.35;;;16.65;;
842;SDS011;407;48.884;9.126;2022-08-19T14:31:00;29.52;;;16.58;;
842;SDS011;407;48.884;9.126;2022-08-19T14:33:26;28.35;;;16.27;;
842;SDS011;407;48.884;9.126;2022-08-19T14:35:52;27.75;;;16.85;;
842;SDS011;407;48.884;9.126;2022-08-19T14:38:19;33.58;;;15.80;;
842;SDS011;407;48.884;9.126;2022-08-19T14:40:45;29.52;;;17.35;;
842;SDS011;407;48.884;9.126;2022-08-19T14:43:12;27.10;;;16.90;;
842;SDS011;407;48.884;9.126;2022-08-19T14:45:39;27.95;;;16.70;;
842;SDS011;407;48.884;9.126;2022-08-19T14:48:05;25.88;;;16.42;;
842;SDS011;407;48.884;9.126;2022-08-19T14:50:32;26.83;;;15.63;;
842;SDS011;407;48.884;9.126;2022-08-19T14:52:59;24.13;;;14.63;;
842;SDS011;407;48.884;9.126;2022-08-19T14:55:26;21.60;;;13.45;;
842;SDS011;407;48.884;9.126;2022-08-19T14:57:52;19.03;;;11.80;;
842;SDS011;407;48.884;9.126;2022-08-19T15:00:18;22.25;;;13.27;;
842;SDS011;407;48.884;9.126;2022-08-19T15:02:44;23.17;;;13.40;;
842;SDS011;407;48.884;9.126;2022-08-19T15:05:10;20.27;;;13.60;;
842;SDS011;407;48.884;9.126;2022-08-19T15:07:37;24.17;;;13.82;;
842;SDS011;407;48.884;9.126;2022-08-19T15:10:04;23.13;;;14.27;;
842;SDS011;407;48.884;9.126;2022-08-19T15:12:31;26.20;;;15.75;;
842;SDS011;407;48.884;9.126;2022-08-19T15:14:58;24.75;;;16.27;;
842;SDS011;407;48.884;9.126;2022-08-19T15:17:24;28.30;;;18.23;;
842;SDS011;407;48.884;9.126;2022-08-19T15:19:51;29.75;;;18.85;;
842;SDS011;407;48.884;9.126;2022-08-19T15:22:17;32.78;;;18.80;;
842;SDS011;407;48.884;9.126;2022-08-19T15:24:42;29.43;;;17.73;;
842;SDS011;407;48.884;9.126;2022-08-19T15:27:11;32.88;;;17.77;;